Time;durP1;ratioP1;P1;durP2;ratioP2;P2;SDS_P1;SDS_P2;PMS_P1;PMS_P2;Temp;Humidity;BMP_temperature;BMP_pressure;BME280_temperature;BME280_humidity;BME280_pressure;Samples;Min_cycle;Max_cycle;Signal;HPM_P1;HPM_P2
2021/11/18 00:00:04;;;;;;;6.63;2.80;;;6.40;94.00;;;;;;2109575;28;20051;-91
2021/11/18 00:01:07;;;;;;;5.80;2.92;;;6.40;94.00;;;;;;2098198;28;20536;-90
2021/11/18 00:02:07;;;;;;;6.55;3.00;;;6.40;94.00;;;;;;2098370;28;20067;-90
2021/11/18 00:03:10;;;;;;;6.55;2.58;;;6.40;94.00;;;;;;2109570;28;20488;-90
2021/11/18 00:04:11;;;;;;;5.60;2.97;;;6.40;94.20;;;;;;2105781;28;20032;-90
2021/11/18 00:05:13;;;;;;;4.95;2.60;;;6.40;94.00;;;;;;2109330;28;20173;-91
2021/11/18 00:06:15;;;;;;;6.28;2.67;;;6.40;94.00;;;;;;2121157;27;20130;-91
2021/11/18 00:07:16;;;;;;;6.25;2.88;;;6.40;94.00;;;;;;2123113;27;20023;-91
2021/11/18 00:08:17;;;;;;;5.78;3.10;;;6.40;94.00;;;;;;2106689;28;20028;-90
2021/11/18 00:09:20;;;;;;;6.35;3.20;;;6.40;94.00;;;;;;2112922;28;20019;-91
2021/11/18 00:10:25;;;;;;;6.28;3.00;;;6.40;94.00;;;;;;2114495;28;20032;-91
2021/11/18 00:11:26;;;;;;;5.40;2.90;;;6.40;94.00;;;;;;2109233;28;20024;-90
2021/11/18 00:12:27;;;;;;;5.55;2.63;;;6.30;94.00;;;;;;2106527;28;20118;-90
2021/11/18 00:13:31;;;;;;;5.80;2.58;;;6.30;94.00;;;;;;2105058;28;20029;-92
2021/11/18 00:14:31;;;;;;;5.68;2.80;;;6.30;94.00;;;;;;2113650;28;20081;-89
2021/11/18 00:15:33;;;;;;;7.57;2.85;;;6.30;94.00;;;;;;2109356;28;20077;-90
2021/11/18 00:16:35;;;;;;;8.07;2.97;;;6.30;94.00;;;;;;2114598;28;20019;-90
2021/11/18 00:17:35;;;;;;;7.05;3.03;;;6.30;94.00;;;;;;2098054;28;20027;-90
2021/11/18 00:18:37;;;;;;;6.40;2.83;;;6.30;94.00;;;;;;2093394;28;20028;-89
2021/11/18 00:19:38;;;;;;;5.25;2.33;;;6.30;94.00;;;;;;2097952;28;20017;-90
2021/11/18 00:20:42;;;;;;;5.25;2.55;;;6.30;94.00;;;;;;2099519;28;20021;-89
2021/11/18 00:21:44;;;;;;;7.55;2.90;;;6.30;94.00;;;;;;2090081;28;20469;-90
2021/11/18 00:22:45;;;;;;;5.28;2.60;;;6.30;94.00;;;;;;2082330;28;20040;-90
2021/11/18 00:23:51;;;;;;;6.68;2.83;;;6.30;94.00;;;;;;2090070;28;20066;-89
2021/11/18 00:24:52;;;;;;;6.22;2.80;;;6.30;94.00;;;;;;2095949;28;20020;-90
2021/11/18 00:25:53;;;;;;;6.82;2.92;;;6.30;94.30;;;;;;2098005;28;20545;-90
2021/11/18 00:26:55;;;;;;;6.13;2.45;;;6.30;94.00;;;;;;2097951;28;20036;-90
2021/11/18 00:27:56;;;;;;;7.55;2.72;;;6.30;94.00;;;;;;2107557;28;20405;-90
2021/11/18 00:28:58;;;;;;;6.68;3.10;;;6.30;94.10;;;;;;2106555;28;20024;-89
2021/11/18 00:29:59;;;;;;;6.55;2.70;;;6.30;94.10;;;;;;2090683;28;20040;-90
2021/11/18 00:31:01;;;;;;;5.88;2.80;;;6.30;94.10;;;;;;2098589;28;20075;-90
2021/11/18 00:32:02;;;;;;;6.22;2.90;;;6.30;94.10;;;;;;2107373;28;20059;-89
2021/11/18 00:33:04;;;;;;;6.20;2.95;;;6.30;94.10;;;;;;2113023;28;20028;-90
2021/11/18 00:34:06;;;;;;;5.97;2.75;;;6.30;94.10;;;;;;2107310;28;20413;-90
2021/11/18 00:35:10;;;;;;;5.65;2.90;;;6.30;94.10;;;;;;2117903;28;20362;-90
2021/11/18 00:36:11;;;;;;;4.82;3.00;;;6.30;94.10;;;;;;2117025;28;20026;-90
2021/11/18 00:37:12;;;;;;;8.10;3.00;;;6.30;94.10;;;;;;2096759;28;20120;-90
2021/11/18 00:38:13;;;;;;;7.57;3.08;;;6.30;94.10;;;;;;2081784;28;20044;-89
2021/11/18 00:39:14;;;;;;;5.53;2.90;;;6.30;94.10;;;;;;2089770;28;20112;-90
2021/11/18 00:40:19;;;;;;;6.40;3.10;;;6.20;94.10;;;;;;2098660;28;20028;-90
2021/11/18 00:41:21;;;;;;;7.72;3.13;;;6.30;94.10;;;;;;2098331;28;20506;-88
2021/11/18 00:42:22;;;;;;;6.93;3.33;;;6.20;94.10;;;;;;2098562;28;20029;-90
2021/11/18 00:43:23;;;;;;;7.38;2.97;;;6.30;94.10;;;;;;2098160;28;20035;-89
2021/11/18 00:44:24;;;;;;;5.82;3.00;;;6.30;94.10;;;;;;2096867;28;20032;-90
2021/11/18 00:45:26;;;;;;;8.10;3.50;;;6.20;94.10;;;;;;2095958;28;20053;-89
2021/11/18 00:46:28;;;;;;;6.45;2.97;;;6.20;94.10;;;;;;2100660;28;20025;-90
2021/11/18 00:47:30;;;;;;;6.47;2.80;;;6.20;94.10;;;;;;2111748;28;20401;-91
2021/11/18 00:48:31;;;;;;;8.38;3.13;;;6.20;94.10;;;;;;2096657;28;20060;-91
2021/11/18 00:49:31;;;;;;;6.43;3.00;;;6.20;94.10;;;;;;2094827;28;20568;-91
2021/11/18 00:50:42;;;;;;;6.78;3.10;;;6.20;94.10;;;;;;2097852;28;20048;-90
2021/11/18 00:51:43;;;;;;;7.22;3.05;;;6.20;94.10;;;;;;2107880;28;20048;-91
2021/11/18 00:52:44;;;;;;;4.57;2.50;;;6.20;94.10;;;;;;2106067;28;20024;-91
2021/11/18 00:53:49;;;;;;;6.32;2.95;;;6.20;94.10;;;;;;2097926;28;20028;-92
2021/11/18 00:54:50;;;;;;;9.30;2.63;;;6.20;94.20;;;;;;2098697;28;20080;-91
2021/11/18 00:55:51;;;;;;;6.53;3.08;;;6.20;94.20;;;;;;2107804;28;20032;-90
2021/11/18 00:56:52;;;;;;;6.80;3.05;;;6.20;94.20;;;;;;2110307;28;20028;-90
2021/11/18 00:57:53;;;;;;;5.30;3.15;;;6.20;94.20;;;;;;2097301;28;20064;-91
2021/11/18 00:58:56;;;;;;;6.00;2.97;;;6.20;94.20;;;;;;2099275;28;20021;-91
2021/11/18 00:59:57;;;;;;;8.40;3.28;;;6.10;94.10;;;;;;2107128;28;20545;-91
2021/11/18 01:00:58;;;;;;;4.90;2.55;;;6.10;94.10;;;;;;2098010;28;20032;-91
2021/11/18 01:01:58;;;;;;;5.90;3.42;;;6.20;94.20;;;;;;2089434;28;20025;-91
2021/11/18 01:02:59;;;;;;;5.80;2.88;;;6.10;94.20;;;;;;2105553;28;20122;-90
2021/11/18 01:04:00;;;;;;;5.20;2.55;;;6.10;94.20;;;;;;2110465;28;20039;-91
2021/11/18 01:05:01;;;;;;;6.80;3.00;;;6.10;94.20;;;;;;2098048;28;20032;-91
2021/11/18 01:06:01;;;;;;;6.53;3.00;;;6.10;94.20;;;;;;2097903;28;20043;-91
2021/11/18 01:07:02;;;;;;;7.45;3.25;;;6.10;94.20;;;;;;2114555;28;20073;-91
2021/11/18 01:08:04;;;;;;;8.23;3.10;;;6.10;94.20;;;;;;2101831;28;20050;-91
2021/11/18 01:09:05;;;;;;;7.05;3.03;;;6.10;94.20;;;;;;2096733;28;20036;-91
2021/11/18 01:10:08;;;;;;;8.32;3.13;;;6.10;94.20;;;;;;2098091;28;20017;-91
2021/11/18 01:11:14;;;;;;;6.32;3.10;;;6.10;94.20;;;;;;2101247;28;20028;-90
2021/11/18 01:12:14;;;;;;;6.95;2.80;;;6.10;94.20;;;;;;2101869;28;20017;-90
2021/11/18 01:13:15;;;;;;;5.40;3.00;;;6.10;94.20;;;;;;2097735;28;20403;-91
2021/11/18 01:14:18;;;;;;;6.75;3.15;;;6.10;94.20;;;;;;2089684;28;20040;-91
2021/11/18 01:15:24;;;;;;;6.45;2.85;;;6.00;94.20;;;;;;2103408;28;20024;-91
2021/11/18 01:16:28;;;;;;;6.00;2.70;;;6.10;94.20;;;;;;2106088;28;20343;-91
2021/11/18 01:17:29;;;;;;;6.65;3.08;;;6.00;94.20;;;;;;2104798;28;20039;-91
2021/11/18 01:18:31;;;;;;;5.32;2.53;;;6.00;94.20;;;;;;2095622;28;20039;-91
2021/11/18 01:19:32;;;;;;;7.43;3.05;;;6.00;94.20;;;;;;2106648;28;20043;-90
2021/11/18 01:20:34;;;;;;;7.55;3.00;;;6.00;94.20;;;;;;2114257;28;20021;-91
2021/11/18 01:21:35;;;;;;;5.13;2.78;;;6.10;94.50;;;;;;2115705;28;20031;-92
2021/11/18 01:22:36;;;;;;;5.25;2.72;;;6.00;94.20;;;;;;2116395;28;20031;-91
2021/11/18 01:23:39;;;;;;;6.85;3.13;;;6.00;94.20;;;;;;2125293;28;20509;-91
2021/11/18 01:24:43;;;;;;;6.88;2.92;;;6.10;94.30;;;;;;2126782;28;20058;-86
2021/11/18 01:25:44;;;;;;;6.55;3.30;;;6.00;94.20;;;;;;2125824;28;20074;-90
2021/11/18 01:26:45;;;;;;;6.80;2.90;;;6.00;94.20;;;;;;2124571;28;20004;-91
2021/11/18 01:27:47;;;;;;;6.18;2.60;;;6.00;94.20;;;;;;2134770;27;20158;-87
2021/11/18 01:28:49;;;;;;;5.30;2.70;;;6.10;94.20;;;;;;2122508;27;20031;-89
2021/11/18 01:29:49;;;;;;;7.90;2.67;;;6.00;94.20;;;;;;2119061;28;20031;-85
2021/11/18 01:30:51;;;;;;;7.03;3.10;;;6.00;94.20;;;;;;2126288;28;20030;-90
2021/11/18 01:31:52;;;;;;;7.28;2.90;;;6.00;94.20;;;;;;2108201;28;20081;-91
2021/11/18 01:32:54;;;;;;;5.70;2.85;;;6.00;94.20;;;;;;2116477;28;20032;-90
2021/11/18 01:33:55;;;;;;;8.60;3.38;;;6.00;94.20;;;;;;2117011;28;20020;-91
2021/11/18 01:34:56;;;;;;;7.07;3.05;;;6.00;94.20;;;;;;2114878;28;20393;-90
2021/11/18 01:35:57;;;;;;;7.07;2.83;;;6.10;94.20;;;;;;2107921;28;20403;-91
2021/11/18 01:36:57;;;;;;;5.75;3.13;;;6.00;94.20;;;;;;2099439;28;20020;-91
2021/11/18 01:37:58;;;;;;;7.28;3.15;;;6.10;94.20;;;;;;2099430;28;20074;-91
2021/11/18 01:38:59;;;;;;;7.47;3.03;;;6.00;94.20;;;;;;2101669;28;20128;-91
2021/11/18 01:40:00;;;;;;;5.75;2.42;;;6.00;94.20;;;;;;2107531;28;20032;-91
2021/11/18 01:41:05;;;;;;;6.57;2.65;;;6.00;94.20;;;;;;2116123;28;20500;-92
2021/11/18 01:42:06;;;;;;;7.22;2.90;;;6.00;94.20;;;;;;2116328;28;20045;-91
2021/11/18 01:43:09;;;;;;;7.50;3.13;;;6.00;94.20;;;;;;2107742;28;20032;-92
2021/11/18 01:44:14;;;;;;;8.18;3.22;;;6.00;94.20;;;;;;2105315;28;20418;-91
2021/11/18 01:45:16;;;;;;;6.30;2.72;;;6.10;94.30;;;;;;2109148;28;20028;-91
2021/11/18 01:46:21;;;;;;;5.97;2.67;;;6.00;94.20;;;;;;2107720;28;20032;-91
2021/11/18 01:47:22;;;;;;;9.40;3.17;;;6.00;94.20;;;;;;2116351;28;20019;-90
2021/11/18 01:48:23;;;;;;;5.95;3.20;;;6.10;94.20;;;;;;2099517;28;20491;-90
2021/11/18 01:49:25;;;;;;;5.90;3.05;;;6.00;94.10;;;;;;2097620;28;20160;-90
2021/11/18 01:50:30;;;;;;;6.28;2.67;;;6.00;94.20;;;;;;2110462;28;20101;-91
2021/11/18 01:51:36;;;;;;;5.40;2.80;;;6.00;94.20;;;;;;2109062;28;20020;-90
2021/11/18 01:52:38;;;;;;;6.07;3.00;;;6.00;94.20;;;;;;2114737;28;20019;-91
2021/11/18 01:53:45;;;;;;;6.22;2.78;;;6.00;94.20;;;;;;2116638;28;20123;-91
2021/11/18 01:54:46;;;;;;;5.20;2.85;;;6.00;94.20;;;;;;2107692;28;20024;-92
2021/11/18 01:55:47;;;;;;;5.78;2.60;;;6.00;94.20;;;;;;2105897;28;20020;-90
2021/11/18 01:56:48;;;;;;;5.80;2.88;;;6.00;94.20;;;;;;2107547;28;20106;-90
2021/11/18 01:57:50;;;;;;;5.85;2.72;;;5.90;94.20;;;;;;2107627;28;20028;-91
2021/11/18 01:58:55;;;;;;;7.30;2.42;;;5.90;94.20;;;;;;2106258;28;20035;-91
2021/11/18 01:59:57;;;;;;;7.82;2.95;;;6.00;94.20;;;;;;2100033;28;20020;-91
2021/11/18 02:00:59;;;;;;;7.90;2.50;;;5.90;94.20;;;;;;2100317;28;20025;-91
2021/11/18 02:02:01;;;;;;;6.03;3.00;;;6.00;94.20;;;;;;2107428;28;20020;-91
2021/11/18 02:03:02;;;;;;;5.00;3.03;;;5.90;94.20;;;;;;2107462;28;20397;-90
2021/11/18 02:04:12;;;;;;;6.00;2.92;;;5.90;94.20;;;;;;2098916;28;20036;-90
2021/11/18 02:05:17;;;;;;;6.27;2.73;;;5.90;94.20;;;;;;2101189;28;20035;-91
2021/11/18 02:06:36;;;;;;;7.20;3.33;;;5.90;94.20;;;;;;2108056;28;20710;-91
2021/11/18 02:07:41;;;;;;;5.60;2.67;;;5.90;94.20;;;;;;2105545;28;20032;-90
2021/11/18 02:08:42;;;;;;;6.78;3.10;;;5.90;94.20;;;;;;2105431;28;20129;-91
2021/11/18 02:09:45;;;;;;;5.85;3.15;;;5.90;94.20;;;;;;2097805;28;20039;-91
2021/11/18 02:10:48;;;;;;;5.70;2.80;;;5.90;94.30;;;;;;2099741;28;20017;-92
2021/11/18 02:11:52;;;;;;;5.75;2.90;;;5.90;94.30;;;;;;2108919;28;20486;-90
2021/11/18 02:12:55;;;;;;;6.30;2.75;;;5.90;94.30;;;;;;2107433;28;20405;-90
2021/11/18 02:13:56;;;;;;;7.05;2.90;;;5.90;94.30;;;;;;2099355;28;20055;-91
2021/11/18 02:14:57;;;;;;;5.50;2.67;;;5.90;94.30;;;;;;2107024;28;20024;-90
2021/11/18 02:16:00;;;;;;;6.57;3.20;;;5.90;94.30;;;;;;2099372;28;20028;-90
2021/11/18 02:17:02;;;;;;;5.85;2.70;;;5.90;94.30;;;;;;2091462;28;20386;-90
2021/11/18 02:18:13;;;;;;;6.28;2.85;;;5.90;94.20;;;;;;2107173;28;20032;-91
2021/11/18 02:19:16;;;;;;;6.68;2.85;;;5.90;94.20;;;;;;2114693;28;20016;-91
2021/11/18 02:20:20;;;;;;;6.45;2.83;;;5.90;94.20;;;;;;2111371;28;20020;-91
2021/11/18 02:21:22;;;;;;;7.10;3.10;;;5.90;94.30;;;;;;2107307;28;20026;-90
2021/11/18 02:22:24;;;;;;;6.32;2.90;;;5.80;94.20;;;;;;2107412;28;20051;-91
2021/11/18 02:23:34;;;;;;;5.05;2.75;;;5.90;94.30;;;;;;2105565;28;20041;-91
2021/11/18 02:24:42;;;;;;;6.32;2.60;;;5.90;94.30;;;;;;2101668;28;20532;-91
2021/11/18 02:25:43;;;;;;;5.57;2.90;;;5.90;94.30;;;;;;2107046;28;20032;-91
2021/11/18 02:26:44;;;;;;;6.10;2.80;;;5.80;94.20;;;;;;2106530;28;20032;-90
2021/11/18 02:27:44;;;;;;;7.15;3.00;;;5.80;94.20;;;;;;2097546;28;20024;-90
2021/11/18 02:28:48;;;;;;;6.70;2.80;;;5.80;94.20;;;;;;2098867;28;20078;-91
2021/11/18 02:29:51;;;;;;;6.53;3.53;;;5.80;94.30;;;;;;2111767;28;20056;-92
2021/11/18 02:30:53;;;;;;;5.63;2.75;;;5.80;94.30;;;;;;2107358;28;20073;-91
2021/11/18 02:31:59;;;;;;;6.72;2.88;;;5.80;94.30;;;;;;2107133;28;20551;-91
2021/11/18 02:32:59;;;;;;;6.82;2.95;;;5.80;94.30;;;;;;2107237;28;20502;-90
2021/11/18 02:34:01;;;;;;;6.88;2.95;;;5.80;94.30;;;;;;2107251;28;20035;-90
2021/11/18 02:35:21;;;;;;;8.68;3.30;;;5.80;94.30;;;;;;2112629;28;20027;-91
2021/11/18 02:36:21;;;;;;;8.70;3.65;;;5.80;94.30;;;;;;2109660;28;20022;-91
2021/11/18 02:37:23;;;;;;;7.82;3.50;;;5.80;94.30;;;;;;2107360;28;20050;-91
2021/11/18 02:38:23;;;;;;;5.60;3.20;;;5.80;94.30;;;;;;2107387;28;20061;-91
2021/11/18 02:39:24;;;;;;;8.23;3.50;;;5.80;94.30;;;;;;2098175;28;20025;-91
2021/11/18 02:40:27;;;;;;;4.97;2.92;;;5.80;94.30;;;;;;2081855;28;20032;-90
2021/11/18 02:41:27;;;;;;;7.32;3.67;;;5.90;94.30;;;;;;2099022;28;20379;-90
2021/11/18 02:42:28;;;;;;;7.75;3.67;;;5.90;94.30;;;;;;2090634;28;20051;-90
2021/11/18 02:43:28;;;;;;;7.25;3.00;;;5.90;94.30;;;;;;2089936;28;20029;-90
2021/11/18 02:44:31;;;;;;;5.93;3.17;;;5.90;94.30;;;;;;2082469;28;20053;-90
2021/11/18 02:45:35;;;;;;;7.60;3.40;;;5.90;94.30;;;;;;2095740;28;20020;-90
2021/11/18 02:46:37;;;;;;;6.18;3.50;;;5.90;94.30;;;;;;2096855;28;20025;-91
2021/11/18 02:47:38;;;;;;;7.28;3.30;;;5.90;94.30;;;;;;2098931;28;20059;-90
2021/11/18 02:48:39;;;;;;;5.90;3.42;;;5.90;94.30;;;;;;2107156;28;20029;-90
2021/11/18 02:49:48;;;;;;;7.35;3.28;;;5.90;94.30;;;;;;2106718;28;20039;-90
2021/11/18 02:50:56;;;;;;;7.18;3.40;;;5.90;94.30;;;;;;2114028;27;20024;-91
2021/11/18 02:51:57;;;;;;;6.10;3.20;;;5.90;94.30;;;;;;2122229;27;20023;-91
2021/11/18 02:52:57;;;;;;;6.57;3.40;;;6.00;94.30;;;;;;2102068;28;20114;-90
2021/11/18 02:53:59;;;;;;;6.90;3.78;;;6.00;94.30;;;;;;2097143;28;20029;-91
2021/11/18 02:55:12;;;;;;;6.60;3.20;;;6.00;94.20;;;;;;2106177;28;20020;-91
2021/11/18 02:56:14;;;;;;;6.15;3.22;;;6.00;94.20;;;;;;2110425;28;20059;-90
2021/11/18 02:57:15;;;;;;;7.32;3.60;;;6.00;94.20;;;;;;2107614;28;20073;-90
2021/11/18 02:58:17;;;;;;;8.48;3.50;;;6.00;94.20;;;;;;2107264;28;20436;-91
2021/11/18 02:59:17;;;;;;;6.43;3.50;;;6.00;94.20;;;;;;2108056;28;20024;-90
2021/11/18 03:00:27;;;;;;;7.72;3.47;;;6.00;94.20;;;;;;2109149;28;20028;-90
2021/11/18 03:01:31;;;;;;;6.97;3.45;;;6.10;94.20;;;;;;2099886;28;20498;-90
2021/11/18 03:02:32;;;;;;;5.93;3.33;;;6.10;94.20;;;;;;2098842;28;20017;-90
2021/11/18 03:03:33;;;;;;;8.02;3.70;;;6.10;94.20;;;;;;2082066;28;20563;-89
2021/11/18 03:04:34;;;;;;;7.60;3.33;;;6.10;94.20;;;;;;2096961;28;20047;-90
2021/11/18 03:05:35;;;;;;;9.00;4.00;;;6.10;94.20;;;;;;2108449;28;20032;-90
2021/11/18 03:06:36;;;;;;;8.50;4.00;;;6.10;94.20;;;;;;2102560;28;20096;-91
2021/11/18 03:07:37;;;;;;;5.93;3.45;;;6.20;94.20;;;;;;2100414;28;20029;-89
2021/11/18 03:08:38;;;;;;;9.00;4.53;;;6.20;94.20;;;;;;2100772;28;20033;-87
2021/11/18 03:09:39;;;;;;;9.20;3.92;;;6.20;94.20;;;;;;2110043;28;20028;-90
2021/11/18 03:10:40;;;;;;;6.25;3.40;;;6.20;94.20;;;;;;2100510;28;20077;-91
2021/11/18 03:11:41;;;;;;;8.63;4.32;;;6.20;94.20;;;;;;2097316;28;20001;-88
2021/11/18 03:12:42;;;;;;;6.82;3.95;;;6.20;94.20;;;;;;2109372;28;20025;-83
2021/11/18 03:13:44;;;;;;;6.70;3.63;;;6.20;94.20;;;;;;2126097;28;21155;-86
2021/11/18 03:14:45;;;;;;;9.55;4.22;;;6.20;94.20;;;;;;2116829;28;20050;-87
2021/11/18 03:15:46;;;;;;;8.43;3.92;;;6.30;94.20;;;;;;2107662;28;20031;-88
2021/11/18 03:16:47;;;;;;;8.88;3.85;;;6.30;94.20;;;;;;2107159;28;20031;-91
2021/11/18 03:17:48;;;;;;;9.15;4.10;;;6.30;94.20;;;;;;2099959;28;20025;-91
2021/11/18 03:18:49;;;;;;;9.13;3.85;;;6.30;94.20;;;;;;2083426;28;20079;-91
2021/11/18 03:19:50;;;;;;;7.70;3.78;;;6.30;94.20;;;;;;2090913;28;20025;-90
2021/11/18 03:20:52;;;;;;;6.80;3.78;;;6.30;94.20;;;;;;2107350;28;20397;-90
2021/11/18 03:21:53;;;;;;;7.28;4.10;;;6.30;94.20;;;;;;2107179;28;20560;-90
2021/11/18 03:22:54;;;;;;;7.47;3.60;;;6.30;94.20;;;;;;2098787;28;20123;-91
2021/11/18 03:23:56;;;;;;;7.95;4.00;;;6.30;94.20;;;;;;2098559;28;20078;-90
2021/11/18 03:24:57;;;;;;;8.10;3.90;;;6.30;94.20;;;;;;2095295;28;20124;-91
2021/11/18 03:25:57;;;;;;;8.18;3.75;;;6.40;94.20;;;;;;2106754;28;20075;-90
2021/11/18 03:26:58;;;;;;;8.10;3.83;;;6.40;94.30;;;;;;2114160;28;20040;-90
2021/11/18 03:28:00;;;;;;;8.65;3.95;;;6.40;94.20;;;;;;2098458;28;20033;-91
2021/11/18 03:29:02;;;;;;;8.15;4.10;;;6.40;94.20;;;;;;2106137;28;20078;-91
2021/11/18 03:30:09;;;;;;;8.20;3.60;;;6.40;94.20;;;;;;2113636;28;20015;-90
2021/11/18 03:31:13;;;;;;;9.45;3.88;;;6.40;94.20;;;;;;2111839;28;20023;-91
2021/11/18 03:32:14;;;;;;;7.78;4.00;;;6.40;94.20;;;;;;2111058;28;20037;-91
2021/11/18 03:33:22;;;;;;;8.27;3.80;;;6.40;94.20;;;;;;2109743;28;20039;-91
2021/11/18 03:34:26;;;;;;;9.70;4.10;;;6.40;94.20;;;;;;2107827;28;20024;-91
2021/11/18 03:35:28;;;;;;;8.98;3.88;;;6.40;94.20;;;;;;2100452;28;20860;-91
2021/11/18 03:36:30;;;;;;;6.75;3.65;;;6.50;94.30;;;;;;2083159;28;20090;-92
2021/11/18 03:37:30;;;;;;;8.80;4.63;;;6.50;94.30;;;;;;2096129;28;20020;-91
2021/11/18 03:38:33;;;;;;;6.55;3.83;;;6.50;94.50;;;;;;2089656;28;20025;-92
2021/11/18 03:39:34;;;;;;;8.60;4.18;;;6.50;94.30;;;;;;2099015;28;20031;-91
2021/11/18 03:40:35;;;;;;;6.32;3.63;;;6.50;94.30;;;;;;2114669;28;20031;-91
2021/11/18 03:41:39;;;;;;;8.30;3.90;;;6.50;94.30;;;;;;2107238;28;20107;-91
2021/11/18 03:42:40;;;;;;;7.18;4.07;;;6.50;94.50;;;;;;2107516;28;20500;-91
2021/11/18 03:43:45;;;;;;;8.02;3.85;;;6.50;94.30;;;;;;2107663;28;20032;-90
2021/11/18 03:44:46;;;;;;;9.02;4.40;;;6.50;94.30;;;;;;2104271;28;20027;-91
2021/11/18 03:45:49;;;;;;;8.55;3.97;;;6.50;94.20;;;;;;2090555;28;20029;-91
2021/11/18 03:47:04;;;;;;;8.35;3.83;;;6.50;94.20;;;;;;2103231;28;20051;-91
2021/11/18 03:48:07;;;;;;;7.20;3.90;;;6.50;94.20;;;;;;2118807;28;20051;-91
2021/11/18 03:49:09;;;;;;;6.70;3.60;;;6.50;94.20;;;;;;2100639;28;20032;-90
2021/11/18 03:50:12;;;;;;;7.25;3.90;;;6.50;94.30;;;;;;2105933;28;20042;-91
2021/11/18 03:51:13;;;;;;;7.03;3.70;;;6.60;94.30;;;;;;2108603;28;20027;-90
2021/11/18 03:52:16;;;;;;;7.50;3.78;;;6.60;94.30;;;;;;2090071;28;20454;-90
2021/11/18 03:53:18;;;;;;;7.70;3.95;;;6.60;94.30;;;;;;2090742;28;20036;-91
2021/11/18 03:54:21;;;;;;;6.38;3.60;;;6.60;94.30;;;;;;2092347;28;20112;-90
2021/11/18 03:55:22;;;;;;;8.45;3.80;;;6.60;94.30;;;;;;2103738;28;20107;-91
2021/11/18 03:56:26;;;;;;;8.35;3.75;;;6.60;94.30;;;;;;2106830;28;20038;-91
2021/11/18 03:57:27;;;;;;;8.13;3.63;;;6.60;94.30;;;;;;2102634;28;20013;-91
2021/11/18 03:58:28;;;;;;;7.90;3.80;;;6.60;94.30;;;;;;2093024;28;20037;-92
2021/11/18 03:59:32;;;;;;;7.78;3.92;;;6.60;94.30;;;;;;2081842;28;20029;-91
2021/11/18 04:00:35;;;;;;;8.23;3.92;;;6.60;94.30;;;;;;2090667;28;20035;-90
2021/11/18 04:01:37;;;;;;;8.32;4.25;;;6.60;94.30;;;;;;2098907;28;20013;-91
2021/11/18 04:02:38;;;;;;;7.47;3.72;;;6.60;94.30;;;;;;2106646;28;20096;-91
2021/11/18 04:03:39;;;;;;;8.40;3.88;;;6.60;94.30;;;;;;2112266;28;20035;-91
2021/11/18 04:04:42;;;;;;;6.78;3.70;;;6.60;94.30;;;;;;2113318;28;20493;-91
2021/11/18 04:05:43;;;;;;;9.35;3.70;;;6.60;94.30;;;;;;2117155;28;20012;-89
2021/11/18 04:06:45;;;;;;;7.85;3.92;;;6.60;94.30;;;;;;2108373;28;20436;-91
2021/11/18 04:07:46;;;;;;;8.73;3.78;;;6.60;94.30;;;;;;2105062;28;20016;-91
2021/11/18 04:08:46;;;;;;;7.60;3.60;;;6.60;94.30;;;;;;2101122;28;20036;-91
2021/11/18 04:09:47;;;;;;;8.18;3.58;;;6.60;94.30;;;;;;2089908;28;20111;-91
2021/11/18 04:10:48;;;;;;;6.07;3.58;;;6.60;94.30;;;;;;2088684;28;20033;-91
2021/11/18 04:11:52;;;;;;;6.30;3.72;;;6.60;94.30;;;;;;2101752;28;20032;-91
2021/11/18 04:12:53;;;;;;;9.68;4.30;;;6.60;94.30;;;;;;2106440;28;20040;-91
2021/11/18 04:13:54;;;;;;;8.55;3.90;;;6.60;94.30;;;;;;2114850;28;20143;-91
2021/11/18 04:14:55;;;;;;;7.80;3.70;;;6.70;94.30;;;;;;2114812;28;20066;-91
2021/11/18 04:15:56;;;;;;;6.35;3.85;;;6.70;94.30;;;;;;2097132;28;20106;-91
2021/11/18 04:16:58;;;;;;;7.40;3.53;;;6.70;94.30;;;;;;2089697;28;20025;-91
2021/11/18 04:18:00;;;;;;;9.05;3.85;;;6.70;94.30;;;;;;2101735;28;20040;-91
2021/11/18 04:19:01;;;;;;;7.85;3.90;;;6.70;94.30;;;;;;2105783;28;20528;-91
2021/11/18 04:20:03;;;;;;;8.90;3.55;;;6.70;94.30;;;;;;2089695;28;20029;-91
2021/11/18 04:21:03;;;;;;;5.97;3.63;;;6.70;94.60;;;;;;2096340;28;20012;-90
2021/11/18 04:22:05;;;;;;;6.68;3.38;;;6.70;94.30;;;;;;2108070;28;20020;-90
2021/11/18 04:23:06;;;;;;;8.65;4.15;;;6.70;94.30;;;;;;2104113;28;20032;-91
2021/11/18 04:24:09;;;;;;;7.85;3.75;;;6.70;94.30;;;;;;2106549;28;20034;-90
2021/11/18 04:25:13;;;;;;;8.73;3.42;;;6.70;94.30;;;;;;2106722;28;20028;-91
2021/11/18 04:26:14;;;;;;;7.78;3.97;;;6.70;94.30;;;;;;2104714;28;20050;-91
2021/11/18 04:27:16;;;;;;;8.77;4.07;;;6.70;94.30;;;;;;2114302;28;20023;-91
2021/11/18 04:28:18;;;;;;;8.20;3.40;;;6.70;94.30;;;;;;2107443;28;20140;-92
2021/11/18 04:29:27;;;;;;;6.75;3.83;;;6.70;94.30;;;;;;2098004;28;20024;-91
2021/11/18 04:30:33;;;;;;;7.55;3.60;;;6.70;94.30;;;;;;2106697;28;20028;-91
2021/11/18 04:31:35;;;;;;;7.80;3.65;;;6.70;94.30;;;;;;2114404;28;20493;-91
2021/11/18 04:32:35;;;;;;;7.65;3.53;;;6.70;94.30;;;;;;2106351;28;20401;-91
2021/11/18 04:33:37;;;;;;;7.57;3.72;;;6.70;94.30;;;;;;2098095;28;20031;-90
2021/11/18 04:34:39;;;;;;;11.23;3.55;;;6.70;94.30;;;;;;2104694;28;20016;-90
2021/11/18 04:35:40;;;;;;;7.03;3.60;;;6.70;94.30;;;;;;2098014;28;20612;-91
2021/11/18 04:36:42;;;;;;;7.68;3.80;;;6.70;94.30;;;;;;2090516;28;20076;-91
2021/11/18 04:37:43;;;;;;;9.55;3.72;;;6.70;94.30;;;;;;2097936;28;20108;-91
2021/11/18 04:38:44;;;;;;;7.20;3.30;;;6.70;94.30;;;;;;2101831;28;20032;-92
2021/11/18 04:39:45;;;;;;;7.75;3.67;;;6.70;94.30;;;;;;2104689;28;20012;-91
2021/11/18 04:40:46;;;;;;;9.23;3.88;;;6.70;94.30;;;;;;2105686;28;20039;-91
2021/11/18 04:41:47;;;;;;;10.45;3.78;;;6.70;94.30;;;;;;2106450;28;20032;-91
2021/11/18 04:42:48;;;;;;;7.88;4.10;;;6.80;94.40;;;;;;2098210;28;20064;-91
2021/11/18 04:43:49;;;;;;;10.27;4.10;;;6.70;94.30;;;;;;2097973;28;20473;-91
2021/11/18 04:44:50;;;;;;;8.93;3.90;;;6.80;94.40;;;;;;2080467;28;20029;-91
2021/11/18 04:45:51;;;;;;;9.40;4.25;;;6.70;94.40;;;;;;2081214;28;20022;-91
2021/11/18 04:46:53;;;;;;;7.30;3.80;;;6.80;94.40;;;;;;2106601;28;20518;-91
2021/11/18 04:47:54;;;;;;;7.43;3.70;;;6.80;94.40;;;;;;2111661;28;20063;-91
2021/11/18 04:48:57;;;;;;;8.07;3.83;;;6.80;94.40;;;;;;2095655;28;20021;-92
2021/11/18 04:49:57;;;;;;;7.75;4.07;;;6.80;94.40;;;;;;2098164;28;20060;-90
2021/11/18 04:50:58;;;;;;;7.80;4.03;;;6.80;94.40;;;;;;2099090;28;20024;-91
2021/11/18 04:51:59;;;;;;;8.70;4.15;;;6.80;94.40;;;;;;2108897;28;20027;-91
2021/11/18 04:53:00;;;;;;;9.85;3.78;;;6.80;94.40;;;;;;2097270;28;20017;-90
2021/11/18 04:54:01;;;;;;;7.75;3.70;;;6.80;94.40;;;;;;2114390;28;20020;-91
2021/11/18 04:55:03;;;;;;;9.20;4.38;;;6.80;94.40;;;;;;2113081;28;20035;-91
2021/11/18 04:56:06;;;;;;;8.68;4.18;;;6.80;94.40;;;;;;2100342;28;20031;-84
2021/11/18 04:57:06;;;;;;;8.48;3.72;;;6.90;94.40;;;;;;2110346;28;20000;-84
2021/11/18 04:58:07;;;;;;;11.55;3.90;;;6.90;94.40;;;;;;2122940;28;20086;-89
2021/11/18 04:59:08;;;;;;;9.60;3.80;;;6.90;94.40;;;;;;2126251;28;20070;-85
2021/11/18 05:00:14;;;;;;;8.13;3.90;;;6.90;94.40;;;;;;2117130;28;20023;-89
2021/11/18 05:01:16;;;;;;;9.73;4.22;;;6.90;94.40;;;;;;2124606;27;20059;-86
2021/11/18 05:02:16;;;;;;;9.15;4.00;;;6.90;94.40;;;;;;2115963;28;20069;-90
2021/11/18 05:03:19;;;;;;;8.55;4.10;;;6.90;94.40;;;;;;2091575;28;20017;-90
2021/11/18 05:04:20;;;;;;;8.63;4.07;;;6.90;94.40;;;;;;2100204;28;20047;-90
2021/11/18 05:05:21;;;;;;;9.65;4.18;;;6.90;94.40;;;;;;2099639;28;20064;-90
2021/11/18 05:06:22;;;;;;;9.57;4.40;;;6.90;94.40;;;;;;2099686;28;20032;-90
2021/11/18 05:07:23;;;;;;;11.32;4.32;;;6.90;94.40;;;;;;2116008;28;20020;-90
2021/11/18 05:08:24;;;;;;;7.00;3.58;;;6.90;94.40;;;;;;2114137;28;20118;-90
2021/11/18 05:09:25;;;;;;;9.63;4.00;;;6.90;94.40;;;;;;2103648;28;20020;-91
2021/11/18 05:10:27;;;;;;;8.82;3.83;;;6.90;94.40;;;;;;2112098;28;20397;-90
2021/11/18 05:11:28;;;;;;;8.95;4.07;;;6.90;94.40;;;;;;2114026;28;20028;-90
2021/11/18 05:12:28;;;;;;;7.93;4.00;;;6.90;94.40;;;;;;2107327;28;20036;-90
2021/11/18 05:13:31;;;;;;;8.82;4.18;;;6.90;94.40;;;;;;2108116;28;20032;-90
2021/11/18 05:14:32;;;;;;;7.55;3.97;;;6.90;94.40;;;;;;2103793;28;20498;-91
2021/11/18 05:15:37;;;;;;;9.07;4.10;;;6.90;94.40;;;;;;2094484;28;20043;-91
2021/11/18 05:16:38;;;;;;;9.43;4.28;;;6.90;94.40;;;;;;2100467;28;20078;-91
2021/11/18 05:17:39;;;;;;;7.78;4.22;;;6.90;94.40;;;;;;2099018;28;20487;-90
2021/11/18 05:18:40;;;;;;;8.43;4.28;;;6.90;94.40;;;;;;2091078;28;20037;-90
2021/11/18 05:19:41;;;;;;;10.38;4.40;;;6.90;94.50;;;;;;2100969;28;20115;-91
2021/11/18 05:20:43;;;;;;;7.50;3.88;;;6.90;94.50;;;;;;2108503;28;20047;-90
2021/11/18 05:21:43;;;;;;;10.50;4.60;;;6.90;94.50;;;;;;2101439;28;20028;-90
2021/11/18 05:22:44;;;;;;;9.75;4.28;;;6.90;94.50;;;;;;2103530;28;20517;-91
2021/11/18 05:23:45;;;;;;;10.50;4.40;;;6.90;94.50;;;;;;2091096;28;20067;-91
2021/11/18 05:24:46;;;;;;;9.70;4.32;;;6.90;94.80;;;;;;2099457;28;20446;-92
2021/11/18 05:25:46;;;;;;;10.38;4.53;;;6.90;94.50;;;;;;2099153;28;20052;-91
2021/11/18 05:26:47;;;;;;;10.82;4.28;;;6.90;94.50;;;;;;2082911;28;20026;-90
2021/11/18 05:27:48;;;;;;;8.60;4.22;;;6.90;94.80;;;;;;2089453;28;20673;-92